PWSweather.com
Personal Weather Stations
Station Observations
WISCHPK61
Green Bay Schmitt Park, Green Bay, WI 54311

Green Bay Schmitt ParkGreen Bay, WI 54311

Lat: 44.514277, Lon: -87.935067

Elevation: 735

Station Type: Acu Rite Pro Weather Center model 02032C

http://greenbayweathercam.com

High Low Average
Temperature 64.9°F18.3°C 61.0°F16.1°C 63.1°F17.3°C
Dew Point 64.6°F18.1°C 60.7°F15.9°C 62.8°F17.1°C
Winds Calm Calm Calm Calm Calm SCalm S
Wind Gusts -- -- --
Humidity 99% 99% 99%
Pressure 29.32 in992.9 mb 29.20 in988.8 mb -
Precipitation 0.08 in2.0 mm - -
Hour Temp Dew Point Humidity Winds Wind Gusts Pressure Precip Precip Rate Daily Precip Total
12:00 AM 64.9°F18.3°C 64.6°F18.1°C 99% Calm Calm -- 29.20 in988.8 mb - 0.04 in1.0 mm 0.03 in0.8 mm
01:00 AM 64.4°F18.0°C 64.1°F17.8°C 99% Calm Calm -- 29.20 in988.8 mb - 0.01 in0.3 mm 0.03 in0.8 mm
02:00 AM 64.0°F17.8°C 63.7°F17.6°C 99% Calm Calm -- 29.20 in988.8 mb - 0.01 in0.3 mm 0.04 in1.0 mm
03:00 AM 63.7°F17.6°C 63.4°F17.4°C 99% Calm Calm -- 29.20 in988.8 mb - 0.00 in0.0 mm 0.04 in1.0 mm
04:00 AM 63.9°F17.7°C 63.6°F17.6°C 99% Calm Calm -- 29.20 in988.8 mb - 0.00 in0.0 mm 0.04 in1.0 mm
05:00 AM 63.1°F17.3°C 62.8°F17.1°C 99% Calm Calm -- 29.22 in989.5 mb - 0.00 in0.0 mm 0.04 in1.0 mm
06:00 AM 62.1°F16.7°C 61.8°F16.6°C 99% Calm Calm -- 29.24 in990.2 mb - 0.00 in0.0 mm 0.04 in1.0 mm
07:00 AM 61.3°F16.3°C 61.0°F16.1°C 99% Calm Calm -- 29.26 in990.9 mb - 0.00 in0.0 mm 0.04 in1.0 mm
08:00 AM 61.2°F16.2°C 60.9°F16.1°C 99% Calm Calm -- 29.26 in990.9 mb - 0.00 in0.0 mm 0.04 in1.0 mm
09:00 AM 62.1°F16.7°C 61.8°F16.6°C 99% Calm Calm -- 29.26 in990.9 mb - 0.00 in0.0 mm 0.04 in1.0 mm
10:00 AM 62.2°F16.8°C 61.9°F16.6°C 99% Calm Calm -- 29.26 in990.9 mb - 0.00 in0.0 mm 0.04 in1.0 mm
11:00 AM 62.2°F16.8°C 61.9°F16.6°C 99% Calm Calm -- 29.27 in991.2 mb - 0.00 in0.0 mm 0.04 in1.0 mm
12:00 PM 62.8°F17.1°C 62.5°F16.9°C 99% Calm Calm -- 29.27 in991.2 mb - 0.01 in0.3 mm 0.05 in1.3 mm
01:00 PM 63.1°F17.3°C 62.8°F17.1°C 99% Calm Calm -- 29.28 in991.5 mb - 0.01 in0.3 mm 0.06 in1.5 mm
02:00 PM 63.7°F17.6°C 63.4°F17.4°C 99% Calm Calm -- 29.28 in991.5 mb - 0.01 in0.3 mm 0.06 in1.5 mm
03:00 PM 63.9°F17.7°C 63.6°F17.6°C 99% Calm Calm -- 29.29 in991.9 mb - 0.00 in0.0 mm 0.06 in1.5 mm
04:00 PM 64.6°F18.1°C 64.3°F17.9°C 99% Calm Calm -- 29.28 in991.5 mb - 0.00 in0.0 mm 0.06 in1.5 mm
05:00 PM 63.7°F17.6°C 63.4°F17.4°C 99% Calm Calm -- 29.28 in991.5 mb - 0.00 in0.0 mm 0.06 in1.5 mm
06:00 PM 63.7°F17.6°C 63.4°F17.4°C 99% Calm Calm -- 29.27 in991.2 mb - 0.02 in0.5 mm 0.08 in2.0 mm
07:00 PM 63.5°F17.5°C 63.2°F17.3°C 99% Calm Calm -- 29.29 in991.9 mb - 0.00 in0.0 mm 0.08 in2.0 mm
08:00 PM 63.3°F17.4°C 63.0°F17.2°C 99% Calm Calm -- 29.30 in992.2 mb - 0.00 in0.0 mm 0.08 in2.0 mm
09:00 PM 63.1°F17.3°C 62.8°F17.1°C 99% Calm Calm -- 29.32 in992.9 mb - 0.00 in0.0 mm 0.08 in2.0 mm
10:00 PM 62.2°F16.8°C 61.9°F16.6°C 99% Calm Calm -- 29.32 in992.9 mb - 0.00 in0.0 mm 0.08 in2.0 mm
11:00 PM 61.0°F16.1°C 60.7°F15.9°C 99% Calm Calm -- 29.31 in992.6 mb - 0.00 in0.0 mm 0.11 in2.8 mm